Time;durP1;ratioP1;P1;durP2;ratioP2;P2;SDS_P1;SDS_P2;PMS_P1;PMS_P2;Temp;Humidity;BMP_temperature;BMP_pressure;BME280_temperature;BME280_humidity;BME280_pressure;Samples;Min_cycle;Max_cycle;Signal;HPM_P1;HPM_P2
2021/12/09 00:00:11;;;;;;;20.70;11.50;;;;;;;-1.67;58.47;99970.80;106447;1327;22348;-81
2021/12/09 00:02:39;;;;;;;17.00;9.90;;;;;;;-1.64;58.87;99967.77;106507;1326;22224;-79
2021/12/09 00:05:09;;;;;;;20.10;11.40;;;;;;;-1.66;59.25;99963.22;106142;1327;22468;-82
2021/12/09 00:07:36;;;;;;;19.10;10.90;;;;;;;-1.62;59.22;99969.24;106454;1320;23095;-80
2021/12/09 00:10:08;;;;;;;18.70;11.30;;;;;;;-1.62;59.46;99968.20;106440;1325;22377;-79
2021/12/09 00:12:35;;;;;;;17.00;9.90;;;;;;;-1.61;59.56;99968.23;106413;1323;22283;-80
2021/12/09 00:15:03;;;;;;;19.20;10.30;;;;;;;-1.68;59.61;99966.43;106283;1322;22368;-80
2021/12/09 00:17:31;;;;;;;16.00;10.80;;;;;;;-1.73;59.98;99966.25;105482;1331;22449;-80
2021/12/09 00:19:58;;;;;;;17.00;9.80;;;;;;;-1.70;60.29;99964.13;105493;1330;22569;-80
2021/12/09 00:22:25;;;;;;;17.50;10.20;;;;;;;-1.66;60.08;99968.23;105495;1331;22991;-79
2021/12/09 00:24:52;;;;;;;15.80;10.10;;;;;;;-1.68;60.03;99967.80;105151;1334;22362;-79
2021/12/09 00:27:19;;;;;;;18.60;10.30;;;;;;;-1.75;60.16;99971.54;105486;1331;22292;-78
2021/12/09 00:29:46;;;;;;;15.20;9.20;;;;;;;-1.77;60.64;99974.41;105480;1331;22272;-79
2021/12/09 00:32:13;;;;;;;18.60;10.90;;;;;;;-1.81;60.60;99974.61;105608;1330;22362;-78
2021/12/09 00:34:43;;;;;;;16.30;10.00;;;;;;;-1.88;60.63;99973.55;105608;1331;23293;-79
2021/12/09 00:37:22;;;;;;;15.00;8.80;;;;;;;-1.93;60.76;99977.52;106153;1325;22370;-74
2021/12/09 00:39:50;;;;;;;17.90;10.50;;;;;;;-1.98;61.08;99980.77;106282;1324;22266;-80
2021/12/09 00:42:23;;;;;;;15.30;9.60;;;;;;;-1.97;61.33;99980.80;106250;1322;22387;-78
2021/12/09 00:44:51;;;;;;;16.50;10.20;;;;;;;-1.96;61.34;99980.52;106369;1325;22999;-77
2021/12/09 00:47:18;;;;;;;15.20;9.30;;;;;;;-1.94;61.52;99984.02;106390;1325;22914;-76
2021/12/09 00:49:46;;;;;;;14.90;9.20;;;;;;;-1.93;61.72;99985.97;106377;1325;22517;-77
2021/12/09 00:52:13;;;;;;;14.70;9.90;;;;;;;-1.89;61.80;99985.94;106384;1325;22428;-78
2021/12/09 00:54:42;;;;;;;14.80;9.00;;;;;;;-1.86;61.85;99988.98;106402;1323;22237;-76
2021/12/09 00:57:11;;;;;;;16.30;9.60;;;;;;;-1.86;61.58;99984.49;106409;1324;22303;-76
2021/12/09 00:59:38;;;;;;;17.10;10.60;;;;;;;-1.87;61.47;99987.39;106422;1325;22217;-76
2021/12/09 01:02:06;;;;;;;15.70;9.60;;;;;;;-1.88;61.56;99987.16;106465;1325;22360;-77
2021/12/09 01:04:33;;;;;;;15.50;9.70;;;;;;;-1.90;61.43;99984.51;106365;1323;22215;-74
2021/12/09 01:06:59;;;;;;;16.10;10.30;;;;;;;-1.99;61.47;99977.98;106068;1326;22347;-76
2021/12/09 01:09:26;;;;;;;14.50;9.40;;;;;;;-2.01;61.55;99985.02;106075;1325;22511;-75
2021/12/09 01:11:54;;;;;;;14.90;9.80;;;;;;;-2.04;61.70;99985.59;106139;1325;22345;-75
2021/12/09 01:14:21;;;;;;;18.20;11.10;;;;;;;-2.05;61.80;99985.91;106230;1325;23206;-75
2021/12/09 01:16:48;;;;;;;15.50;9.90;;;;;;;-2.02;61.75;99987.90;106223;1325;22931;-76
2021/12/09 01:19:16;;;;;;;13.20;9.10;;;;;;;-1.98;62.16;99981.46;106041;1325;22225;-76
2021/12/09 01:21:43;;;;;;;17.00;9.80;;;;;;;-1.98;62.07;99981.29;106333;1326;22239;-76
2021/12/09 01:24:10;;;;;;;17.00;9.50;;;;;;;-1.96;62.21;99983.27;106250;1324;22273;-76
2021/12/09 01:26:37;;;;;;;14.70;9.50;;;;;;;-1.95;62.24;99983.12;106062;1325;22444;-76
2021/12/09 01:29:13;;;;;;;16.50;9.70;;;;;;;-1.94;62.20;99986.27;106377;1320;23258;-77
2021/12/09 01:31:41;;;;;;;15.30;9.90;;;;;;;-1.92;61.99;99983.58;106381;1325;22293;-74
2021/12/09 01:34:09;;;;;;;16.50;9.70;;;;;;;-1.93;61.88;99983.38;106218;1325;22955;-73
2021/12/09 01:36:36;;;;;;;14.80;8.90;;;;;;;-1.91;61.98;99982.95;106130;1325;22199;-75
2021/12/09 01:39:05;;;;;;;16.60;10.10;;;;;;;-1.87;62.01;99977.55;104994;1329;23018;-74
2021/12/09 01:41:32;;;;;;;15.30;10.30;;;;;;;-1.83;62.09;99974.55;106256;1325;23053;-74
2021/12/09 01:43:59;;;;;;;18.00;10.70;;;;;;;-1.79;61.86;99966.78;106206;1325;22253;-73
2021/12/09 01:46:26;;;;;;;17.40;10.80;;;;;;;-1.72;61.83;99969.91;105122;1325;22922;-72
2021/12/09 01:48:53;;;;;;;15.00;9.90;;;;;;;-1.69;61.43;99963.47;106229;1325;22293;-72
2021/12/09 01:51:21;;;;;;;18.10;10.70;;;;;;;-1.67;61.29;99959.74;106261;1325;22202;-72
2021/12/09 01:53:49;;;;;;;16.90;10.80;;;;;;;-1.65;61.14;99956.88;106381;1325;22913;-73
2021/12/09 01:56:21;;;;;;;15.40;10.20;;;;;;;-1.61;60.98;99955.09;106352;1325;22246;-76
2021/12/09 01:59:00;;;;;;;19.60;10.00;;;;;;;-1.62;60.67;99956.10;106145;1325;22211;-76
2021/12/09 02:01:27;;;;;;;20.50;11.90;;;;;;;-1.63;60.42;99954.36;106244;1325;22265;-76
2021/12/09 02:03:55;;;;;;;17.50;10.80;;;;;;;-1.70;60.28;99958.58;106394;1325;22199;-75
2021/12/09 02:06:24;;;;;;;19.70;11.20;;;;;;;-1.72;60.32;99956.61;106165;1325;22374;-75
2021/12/09 02:08:52;;;;;;;15.90;10.50;;;;;;;-1.72;60.26;99953.88;106089;1325;23139;-76
2021/12/09 02:11:20;;;;;;;15.70;10.50;;;;;;;-1.79;60.22;99953.11;106144;1325;23084;-76
2021/12/09 02:13:50;;;;;;;19.60;11.00;;;;;;;-1.85;60.33;99950.16;106092;1325;23041;-74
2021/12/09 02:16:18;;;;;;;19.10;12.60;;;;;;;-1.84;60.39;99951.55;106057;1325;22309;-74
2021/12/09 02:18:45;;;;;;;17.60;10.70;;;;;;;-1.81;60.60;99949.94;106078;1326;22217;-74
2021/12/09 02:21:15;;;;;;;17.50;10.90;;;;;;;-1.81;60.46;99952.88;106210;1325;22468;-73
2021/12/09 02:23:47;;;;;;;21.60;11.90;;;;;;;-1.86;60.57;99952.88;106059;1325;22298;-74
2021/12/09 02:26:15;;;;;;;17.20;11.40;;;;;;;-1.83;60.53;99948.85;106188;1325;22191;-73
2021/12/09 02:28:44;;;;;;;18.20;11.80;;;;;;;-1.86;60.64;99946.33;106044;1325;22473;-74
2021/12/09 02:31:12;;;;;;;20.30;11.90;;;;;;;-1.85;60.79;99951.02;106042;1325;22487;-74
2021/12/09 02:33:39;;;;;;;19.10;11.80;;;;;;;-1.84;60.90;99948.48;106118;1325;22471;-74
2021/12/09 02:36:07;;;;;;;21.90;12.90;;;;;;;-1.85;60.78;99951.90;106357;1325;22428;-73
2021/12/09 02:38:42;;;;;;;22.10;12.40;;;;;;;-1.89;60.84;99950.87;106392;1324;22292;-73
2021/12/09 02:41:16;;;;;;;22.00;12.90;;;;;;;-1.92;61.00;99942.66;106201;1326;22805;-74
2021/12/09 02:43:48;;;;;;;23.60;12.40;;;;;;;-1.87;61.10;99937.30;106222;1325;22343;-74
2021/12/09 02:46:16;;;;;;;23.80;14.00;;;;;;;-1.82;61.12;99927.64;106362;1325;22407;-73
2021/12/09 02:48:45;;;;;;;18.70;11.30;;;;;;;-1.83;60.72;99921.58;106181;1325;22410;-73
2021/12/09 02:51:13;;;;;;;22.30;13.00;;;;;;;-1.85;60.81;99922.88;106071;1325;22199;-74
2021/12/09 02:53:41;;;;;;;21.30;12.90;;;;;;;-1.91;60.84;99916.66;106068;1326;22227;-75
2021/12/09 02:56:08;;;;;;;21.10;12.60;;;;;;;-1.95;60.86;99912.69;106385;1325;22355;-75
2021/12/09 02:58:36;;;;;;;21.50;12.70;;;;;;;-1.99;61.00;99911.02;106369;1325;22495;-74
2021/12/09 03:01:16;;;;;;;19.80;11.70;;;;;;;-1.99;61.45;99905.50;106465;1325;22372;-74
2021/12/09 03:03:50;;;;;;;22.90;12.40;;;;;;;-1.89;61.53;99905.67;106441;1325;22201;-74
2021/12/09 03:06:20;;;;;;;19.30;12.50;;;;;;;-1.87;61.27;99910.40;106632;1325;22350;-74
2021/12/09 03:08:48;;;;;;;18.10;11.80;;;;;;;-1.86;61.31;99918.19;106556;1325;22210;-76
2021/12/09 03:11:21;;;;;;;19.80;11.90;;;;;;;-1.95;61.27;99917.89;106146;1326;22989;-75
2021/12/09 03:13:50;;;;;;;17.30;10.90;;;;;;;-1.97;61.26;99914.21;106096;1325;22404;-75
2021/12/09 03:16:22;;;;;;;17.80;11.00;;;;;;;-1.99;61.43;99913.63;106039;1325;23105;-76
2021/12/09 03:18:55;;;;;;;20.70;12.40;;;;;;;-2.03;61.40;99905.20;106194;1325;22971;-75
2021/12/09 03:21:29;;;;;;;20.10;11.80;;;;;;;-2.00;61.61;99903.91;106194;1325;22210;-76
2021/12/09 03:23:57;;;;;;;17.40;11.30;;;;;;;-2.06;61.61;99903.03;105912;1328;22197;-76
2021/12/09 03:26:29;;;;;;;19.90;12.00;;;;;;;-2.11;61.62;99900.61;106177;1325;22528;-77
2021/12/09 03:29:09;;;;;;;17.80;11.70;;;;;;;-2.11;61.74;99909.91;106370;1326;22355;-76
2021/12/09 03:31:38;;;;;;;18.00;11.50;;;;;;;-2.12;61.83;99915.41;105819;1325;22358;-76
2021/12/09 03:34:07;;;;;;;19.30;10.50;;;;;;;-2.12;62.00;99914.91;106073;1325;22319;-78
2021/12/09 03:36:33;;;;;;;19.90;11.80;;;;;;;-2.13;61.90;99918.34;106067;1325;22350;-77
2021/12/09 03:39:05;;;;;;;19.70;10.50;;;;;;;-2.18;62.08;99918.33;106212;1325;23112;-76
2021/12/09 03:41:33;;;;;;;17.90;11.50;;;;;;;-2.18;62.20;99908.64;106073;1325;22209;-76
2021/12/09 03:44:00;;;;;;;15.80;10.00;;;;;;;-2.16;62.15;99913.20;106374;1325;22421;-76
2021/12/09 03:46:27;;;;;;;16.90;10.60;;;;;;;-2.19;62.01;99915.86;106151;1325;22356;-77
2021/12/09 03:48:54;;;;;;;15.80;9.60;;;;;;;-2.19;62.09;99916.73;106142;1325;22210;-75
2021/12/09 03:51:21;;;;;;;13.80;9.10;;;;;;;-2.22;62.11;99912.52;106181;1325;22353;-77
2021/12/09 03:53:48;;;;;;;14.80;9.40;;;;;;;-2.25;62.33;99911.87;106213;1322;22241;-77
2021/12/09 03:56:15;;;;;;;19.80;11.20;;;;;;;-2.26;62.31;99915.45;106218;1325;22235;-76
2021/12/09 03:58:42;;;;;;;20.70;11.50;;;;;;;-2.22;62.32;99912.84;106397;1325;22316;-75
2021/12/09 04:01:09;;;;;;;20.80;12.30;;;;;;;-2.17;62.30;99917.48;106368;1325;22368;-75
2021/12/09 04:03:36;;;;;;;16.30;10.60;;;;;;;-2.18;62.31;99914.50;106391;1325;23114;-74
2021/12/09 04:06:03;;;;;;;17.10;11.30;;;;;;;-2.19;62.12;99914.31;105096;1325;22210;-73
2021/12/09 04:08:30;;;;;;;15.50;9.90;;;;;;;-2.22;61.93;99906.98;106378;1325;22334;-74
2021/12/09 04:10:57;;;;;;;18.60;11.80;;;;;;;-2.27;61.98;99908.35;106186;1327;23214;-73
2021/12/09 04:13:24;;;;;;;18.80;12.00;;;;;;;-2.28;62.28;99907.13;106371;1325;22368;-74
2021/12/09 04:15:51;;;;;;;17.90;11.10;;;;;;;-2.24;62.27;99910.19;106022;1326;22447;-73
2021/12/09 04:18:18;;;;;;;18.50;9.50;;;;;;;-2.25;62.07;99904.46;106097;1325;22378;-74
2021/12/09 04:20:45;;;;;;;18.80;11.50;;;;;;;-2.27;62.20;99906.61;106400;1325;22366;-74
2021/12/09 04:23:12;;;;;;;18.70;9.90;;;;;;;-2.23;62.18;99913.65;106083;1325;22274;-75
2021/12/09 04:25:39;;;;;;;18.10;10.90;;;;;;;-2.28;62.04;99918.16;106197;1325;22351;-72
2021/12/09 04:28:06;;;;;;;14.00;9.50;;;;;;;-2.32;61.90;99919.39;106187;1326;22947;-74
2021/12/09 04:30:34;;;;;;;13.80;9.00;;;;;;;-2.36;62.04;99928.90;106206;1325;22326;-75
2021/12/09 04:33:01;;;;;;;16.10;10.50;;;;;;;-2.43;61.99;99923.83;106217;1325;23039;-73
2021/12/09 04:35:29;;;;;;;15.70;9.00;;;;;;;-2.39;62.14;99929.48;106391;1323;22391;-73
2021/12/09 04:37:56;;;;;;;19.00;10.50;;;;;;;-2.39;62.22;99931.05;106156;1324;22357;-73
2021/12/09 04:40:23;;;;;;;16.40;9.60;;;;;;;-2.39;62.27;99930.35;106227;1325;22460;-74
2021/12/09 04:42:49;;;;;;;18.60;9.90;;;;;;;-2.32;62.28;99942.67;106041;1325;22387;-73
2021/12/09 04:45:17;;;;;;;14.10;9.00;;;;;;;-2.27;62.39;99939.40;106144;1326;22426;-74
2021/12/09 04:47:43;;;;;;;14.30;9.90;;;;;;;-2.20;62.23;99941.02;106056;1325;22399;-73
2021/12/09 04:50:11;;;;;;;18.20;10.10;;;;;;;-2.17;62.15;99946.48;106388;1325;22361;-81
2021/12/09 04:52:39;;;;;;;17.00;9.90;;;;;;;-2.15;61.96;99947.77;106370;1325;22280;-74
2021/12/09 04:55:07;;;;;;;14.20;9.50;;;;;;;-2.12;62.05;99950.29;106386;1325;22817;-73
2021/12/09 04:57:35;;;;;;;14.80;9.90;;;;;;;-2.14;61.65;99949.70;105444;1331;22305;-74
2021/12/09 05:00:08;;;;;;;18.40;10.70;;;;;;;-2.15;61.65;99944.45;104965;1337;22431;-76
2021/12/09 05:05:21;;;;;;;13.80;8.80;;;;;;;-2.28;62.00;99940.74;105089;1334;22411;-75
2021/12/09 05:07:48;;;;;;;14.40;9.00;;;;;;;-2.26;61.93;99938.58;105079;1336;22470;-75
2021/12/09 05:10:16;;;;;;;14.10;9.60;;;;;;;-2.28;62.06;99943.70;105104;1336;22548;-75
2021/12/09 05:12:43;;;;;;;14.30;9.20;;;;;;;-2.28;61.99;99951.29;105055;1334;22931;-75
2021/12/09 05:15:10;;;;;;;13.10;9.20;;;;;;;-2.26;62.16;99954.44;105223;1330;22381;-73
2021/12/09 05:17:37;;;;;;;13.90;9.30;;;;;;;-2.26;62.22;99954.96;106035;1325;22301;-75
2021/12/09 05:20:05;;;;;;;18.40;10.50;;;;;;;-2.21;62.15;99954.42;106427;1325;22367;-77
2021/12/09 05:22:32;;;;;;;15.90;9.60;;;;;;;-2.24;61.80;99946.23;106346;1325;22840;-73
2021/12/09 05:24:59;;;;;;;15.60;10.20;;;;;;;-2.32;61.93;99939.59;106220;1325;22296;-73
2021/12/09 05:27:26;;;;;;;14.80;8.80;;;;;;;-2.33;62.07;99945.40;106071;1324;204654;-73
2021/12/09 05:30:04;;;;;;;14.60;9.50;;;;;;;-2.29;62.30;99943.48;106413;1325;22404;-73
2021/12/09 05:32:31;;;;;;;16.70;10.60;;;;;;;-2.26;62.29;99948.25;106372;1325;22382;-74
2021/12/09 05:34:59;;;;;;;12.70;8.50;;;;;;;-2.26;62.14;99946.16;104876;1328;22466;-74
2021/12/09 05:37:26;;;;;;;16.40;8.90;;;;;;;-2.27;62.21;99944.58;106237;1325;22835;-74
2021/12/09 05:39:56;;;;;;;15.00;8.90;;;;;;;-2.28;62.13;99949.55;106384;1324;22307;-73
2021/12/09 05:42:27;;;;;;;14.40;10.30;;;;;;;-2.27;62.29;99949.75;106032;1325;22225;-73
2021/12/09 05:44:54;;;;;;;16.00;9.70;;;;;;;-2.22;62.37;99942.66;105695;1331;22285;-73
2021/12/09 05:47:24;;;;;;;16.00;10.40;;;;;;;-2.20;62.25;99942.03;105733;1330;22410;-73
2021/12/09 05:49:53;;;;;;;15.10;10.50;;;;;;;-2.25;62.07;99946.89;105549;1331;23029;-73
2021/12/09 05:52:20;;;;;;;16.70;10.10;;;;;;;-2.29;62.34;99942.27;105693;1330;22586;-74
2021/12/09 05:54:47;;;;;;;19.20;9.80;;;;;;;-2.22;62.39;99946.46;105699;1330;22505;-73
2021/12/09 05:57:14;;;;;;;16.90;9.70;;;;;;;-2.18;62.36;99957.83;105543;1331;22419;-73
2021/12/09 05:59:42;;;;;;;16.30;10.00;;;;;;;-2.21;62.09;99958.55;105074;1336;22295;-74
2021/12/09 06:02:16;;;;;;;14.50;10.10;;;;;;;-2.24;62.23;99960.20;104827;1339;22484;-76
2021/12/09 06:04:44;;;;;;;15.90;9.70;;;;;;;-2.26;62.35;99964.98;105219;1336;22515;-75
2021/12/09 06:07:12;;;;;;;14.60;9.20;;;;;;;-2.27;62.42;99960.13;104731;1336;22304;-75
2021/12/09 06:09:40;;;;;;;17.10;9.80;;;;;;;-2.26;62.63;99952.36;104696;1336;22483;-75
2021/12/09 06:12:07;;;;;;;14.10;9.90;;;;;;;-2.30;62.32;99945.84;105306;1336;22495;-74
2021/12/09 06:14:35;;;;;;;15.10;9.90;;;;;;;-2.32;62.44;99947.48;105357;1334;22482;-76
2021/12/09 06:17:02;;;;;;;17.00;11.00;;;;;;;-2.34;62.51;99945.88;105406;1331;22478;-74
2021/12/09 06:19:29;;;;;;;15.60;9.80;;;;;;;-2.33;62.76;99951.42;105940;1325;22536;-75
2021/12/09 06:21:56;;;;;;;17.80;10.50;;;;;;;-2.35;62.68;99949.12;106376;1325;22291;-74
2021/12/09 06:24:23;;;;;;;19.20;10.60;;;;;;;-2.37;62.61;99941.48;106428;1325;22277;-74
2021/12/09 06:26:50;;;;;;;16.30;10.30;;;;;;;-2.36;62.87;99936.16;106439;1324;22428;-74
2021/12/09 06:29:17;;;;;;;15.20;10.80;;;;;;;-2.36;62.75;99937.02;105803;1328;22479;-73
2021/12/09 06:31:44;;;;;;;16.60;10.80;;;;;;;-2.38;63.00;99936.94;105989;1325;22845;-74
2021/12/09 06:34:12;;;;;;;15.90;10.80;;;;;;;-2.28;63.09;99943.68;106377;1325;22514;-74
2021/12/09 06:36:40;;;;;;;16.30;11.30;;;;;;;-2.20;63.11;99934.11;106370;1325;22361;-77
2021/12/09 06:39:09;;;;;;;17.60;11.50;;;;;;;-2.17;62.98;99932.33;105547;1331;23282;-77
2021/12/09 06:41:36;;;;;;;16.80;10.80;;;;;;;-2.09;63.23;99933.11;104832;1333;23254;-77
2021/12/09 06:44:03;;;;;;;18.20;10.40;;;;;;;-2.03;62.98;99935.74;105359;1333;22347;-80
2021/12/09 06:46:30;;;;;;;17.70;10.90;;;;;;;-2.01;62.87;99943.92;105448;1331;22395;-79
2021/12/09 06:48:57;;;;;;;16.00;10.80;;;;;;;-1.98;62.79;99955.91;105395;1333;22372;-77
2021/12/09 06:51:24;;;;;;;14.70;10.30;;;;;;;-1.95;63.11;99958.77;105453;1331;22911;-77
2021/12/09 06:53:51;;;;;;;17.60;11.90;;;;;;;-1.97;62.88;99948.36;105378;1333;22418;-77
2021/12/09 06:56:19;;;;;;;16.70;10.60;;;;;;;-2.03;62.87;99946.27;105627;1331;22560;-77
2021/12/09 06:58:46;;;;;;;15.00;10.80;;;;;;;-2.03;63.09;99955.24;106192;1325;22225;-77
2021/12/09 07:01:14;;;;;;;17.70;11.20;;;;;;;-2.00;63.09;99961.55;105267;1330;22316;-78
2021/12/09 07:03:42;;;;;;;14.40;10.00;;;;;;;-2.04;62.93;99964.38;105445;1331;22349;-77
2021/12/09 07:06:11;;;;;;;15.90;10.20;;;;;;;-2.09;62.90;99965.38;105328;1331;22279;-77
2021/12/09 07:08:46;;;;;;;18.50;11.00;;;;;;;-2.08;63.12;99965.61;105379;1333;22461;-78
2021/12/09 07:11:16;;;;;;;16.00;10.50;;;;;;;-2.04;63.22;99963.32;105361;1331;22279;-77
2021/12/09 07:13:44;;;;;;;13.90;9.30;;;;;;;-2.04;63.06;99955.04;105598;1331;22400;-77
2021/12/09 07:16:11;;;;;;;16.60;10.80;;;;;;;-2.04;63.08;99952.95;105584;1331;22279;-78
2021/12/09 07:18:39;;;;;;;14.40;9.80;;;;;;;-2.01;63.19;99954.80;105482;1326;22620;-78
2021/12/09 07:21:07;;;;;;;15.30;10.50;;;;;;;-1.96;63.22;99966.68;105905;1326;22462;-78
2021/12/09 07:23:35;;;;;;;16.40;10.60;;;;;;;-2.00;63.01;99972.42;105971;1326;22419;-79
2021/12/09 07:26:03;;;;;;;13.80;9.90;;;;;;;-2.15;62.83;99967.77;106026;1326;22223;-79
2021/12/09 07:28:30;;;;;;;16.00;10.60;;;;;;;-2.23;63.23;99964.55;105302;1331;22288;-80
2021/12/09 07:31:02;;;;;;;17.60;11.50;;;;;;;-2.26;63.34;99959.61;105702;1330;22416;-80
2021/12/09 07:33:35;;;;;;;19.80;12.50;;;;;;;-2.25;63.58;99956.04;104861;1336;22522;-78
2021/12/09 07:36:07;;;;;;;17.90;11.20;;;;;;;-2.19;63.78;99960.02;104647;1340;23099;-78
2021/12/09 07:38:35;;;;;;;18.20;10.70;;;;;;;-2.12;63.86;99958.71;104754;1339;22314;-79
2021/12/09 07:41:02;;;;;;;16.40;11.00;;;;;;;-2.05;63.81;99961.73;104582;1339;23087;-78
2021/12/09 07:43:30;;;;;;;14.30;8.50;;;;;;;-1.95;63.97;99961.03;104706;1339;22403;-79
2021/12/09 07:45:58;;;;;;;16.60;10.70;;;;;;;-1.93;63.72;99962.49;104696;1339;22911;-80
2021/12/09 07:48:26;;;;;;;19.10;12.00;;;;;;;-1.91;63.72;99960.67;104829;1339;22477;-87
2021/12/09 07:50:53;;;;;;;15.60;9.30;;;;;;;-1.88;63.73;99968.38;104830;1339;22456;-80
2021/12/09 07:53:22;;;;;;;18.00;10.20;;;;;;;-1.92;63.52;99975.28;104706;1339;22928;-78
2021/12/09 07:55:56;;;;;;;13.10;9.40;;;;;;;-1.99;63.38;99974.36;104809;1339;23021;-79
2021/12/09 07:58:24;;;;;;;16.90;10.90;;;;;;;-2.02;63.80;99970.30;105186;1331;22324;-80
2021/12/09 08:00:51;;;;;;;20.40;11.40;;;;;;;-2.00;64.03;99971.74;104779;1333;22419;-82
2021/12/09 08:03:19;;;;;;;18.00;11.70;;;;;;;-1.95;63.93;99976.74;105479;1333;22275;-80
2021/12/09 08:05:47;;;;;;;15.50;10.30;;;;;;;-1.93;63.73;99975.77;105334;1333;22303;-80
2021/12/09 08:08:17;;;;;;;15.80;9.90;;;;;;;-1.97;63.90;99976.66;105077;1333;22541;-84
2021/12/09 08:10:48;;;;;;;17.20;11.50;;;;;;;-1.91;64.16;99969.80;105237;1332;22268;-78
2021/12/09 08:13:15;;;;;;;15.30;11.40;;;;;;;-1.84;63.99;99965.72;105170;1333;22313;-77
2021/12/09 08:15:48;;;;;;;15.10;10.40;;;;;;;-1.80;64.22;99962.77;105508;1325;22910;-80
2021/12/09 08:20:51;;;;;;;19.10;11.50;;;;;;;-1.68;64.12;99957.80;105996;1328;22394;-79
2021/12/09 08:23:19;;;;;;;15.40;10.50;;;;;;;-1.63;63.97;99958.48;105854;1324;22337;-77
2021/12/09 08:25:47;;;;;;;14.30;10.30;;;;;;;-1.60;64.03;99960.83;106215;1327;22261;-80
2021/12/09 08:28:15;;;;;;;16.00;11.20;;;;;;;-1.56;64.11;99957.33;104854;1323;22516;-83
2021/12/09 08:30:42;;;;;;;14.30;9.40;;;;;;;-1.56;64.11;99942.50;106013;1327;22356;-78
2021/12/09 08:33:19;;;;;;;16.00;10.60;;;;;;;-1.56;64.11;99941.09;106246;1327;22383;-79
2021/12/09 08:35:47;;;;;;;15.30;9.80;;;;;;;-1.55;64.17;99941.33;105916;1326;23190;-80
2021/12/09 08:38:15;;;;;;;24.10;13.00;;;;;;;-1.50;64.26;99944.07;106141;1328;22343;-79
2021/12/09 08:40:43;;;;;;;21.40;13.10;;;;;;;-1.43;64.22;99948.77;105963;1326;22478;-79
2021/12/09 08:43:10;;;;;;;19.80;12.80;;;;;;;-1.30;64.14;99956.27;105223;1331;22268;-79
2021/12/09 08:45:38;;;;;;;18.10;10.80;;;;;;;-1.21;64.19;99960.17;105515;1332;22320;-78
2021/12/09 08:48:07;;;;;;;18.10;13.10;;;;;;;-1.18;64.00;99969.41;105133;1334;22436;-79
2021/12/09 08:50:36;;;;;;;17.20;12.10;;;;;;;-1.16;63.87;99980.05;105224;1333;22479;-80
2021/12/09 08:53:07;;;;;;;17.90;11.10;;;;;;;-1.12;64.15;99982.40;104769;1336;22327;-88
2021/12/09 08:55:37;;;;;;;18.30;11.00;;;;;;;-1.09;63.96;99988.69;105016;1336;22286;-81
2021/12/09 08:58:05;;;;;;;18.30;11.40;;;;;;;-1.08;64.06;99995.83;104821;1339;22304;-80
2021/12/09 09:00:33;;;;;;;22.00;13.30;;;;;;;-1.05;64.07;99996.29;104922;1331;22774;-81
2021/12/09 09:03:03;;;;;;;18.60;12.90;;;;;;;-0.98;64.13;99991.85;105256;1331;22302;-80
2021/12/09 09:05:33;;;;;;;18.80;11.70;;;;;;;-0.92;63.76;99983.89;105467;1331;22475;-88
2021/12/09 09:08:02;;;;;;;20.60;12.40;;;;;;;-0.86;63.99;99982.19;105449;1330;22575;-80
2021/12/09 09:10:32;;;;;;;16.50;11.80;;;;;;;-0.77;64.06;99978.98;105331;1328;22537;-80
2021/12/09 09:13:00;;;;;;;20.40;13.40;;;;;;;-0.69;63.79;99970.91;106114;1328;22995;-84
2021/12/09 09:15:31;;;;;;;17.50;11.80;;;;;;;-0.65;63.71;99968.95;105828;1326;22438;-76
2021/12/09 09:18:00;;;;;;;19.10;12.80;;;;;;;-0.65;63.43;99966.87;106397;1326;22296;-79
2021/12/09 09:20:30;;;;;;;19.40;12.30;;;;;;;-0.65;63.34;99965.33;106157;1327;22396;-83
2021/12/09 09:22:58;;;;;;;17.70;11.90;;;;;;;-0.71;63.25;99957.88;106612;1325;23172;-80
2021/12/09 09:25:29;;;;;;;19.80;11.90;;;;;;;-0.71;63.59;99963.77;106459;1326;22343;-81
2021/12/09 09:27:59;;;;;;;21.80;12.10;;;;;;;-0.67;63.62;99966.99;106430;1328;22464;-82
2021/12/09 09:30:34;;;;;;;20.20;13.00;;;;;;;-0.66;63.39;99970.99;106546;1322;22321;-80
2021/12/09 09:33:05;;;;;;;18.80;12.90;;;;;;;-0.68;63.60;99970.42;106040;1327;22256;-79
2021/12/09 09:35:33;;;;;;;20.20;12.30;;;;;;;-0.64;63.62;99977.12;105206;1334;22357;-80
2021/12/09 09:38:00;;;;;;;18.00;11.40;;;;;;;-0.60;63.70;99979.63;105171;1333;22424;-79
2021/12/09 09:40:38;;;;;;;17.00;12.30;;;;;;;-0.55;63.67;99990.17;105159;1334;22386;-79
2021/12/09 09:43:25;;;;;;;20.10;12.70;;;;;;;-0.52;63.40;99975.92;105363;1333;22289;-79
2021/12/09 09:46:04;;;;;;;21.00;13.70;;;;;;;-0.56;63.28;99969.04;104849;1339;22437;-78
2021/12/09 09:48:32;;;;;;;20.70;13.60;;;;;;;-0.60;63.30;99965.14;104779;1339;22319;-77
2021/12/09 09:51:00;;;;;;;18.40;11.80;;;;;;;-0.65;63.53;99952.88;104810;1339;23095;-78
2021/12/09 09:53:27;;;;;;;21.20;12.30;;;;;;;-0.69;63.59;99959.49;104852;1334;22672;-78
2021/12/09 09:55:54;;;;;;;18.90;11.50;;;;;;;-0.67;63.60;99962.13;105211;1333;22951;-78
2021/12/09 09:58:23;;;;;;;18.60;13.20;;;;;;;-0.67;63.87;99960.59;105372;1330;22949;-78
2021/12/09 10:00:51;;;;;;;20.70;13.30;;;;;;;-0.66;63.74;99968.77;105102;1334;22298;-79
2021/12/09 10:03:18;;;;;;;20.40;13.70;;;;;;;-0.65;63.70;99965.31;105225;1328;22235;-79
2021/12/09 10:05:48;;;;;;;20.60;14.00;;;;;;;-0.67;63.86;99961.11;106173;1326;22399;-79
2021/12/09 10:08:17;;;;;;;16.90;11.60;;;;;;;-0.63;64.00;99943.09;105199;1334;23254;-78
2021/12/09 10:10:46;;;;;;;19.20;12.90;;;;;;;-0.67;63.85;99928.77;105368;1327;22421;-78
2021/12/09 10:13:18;;;;;;;25.40;16.20;;;;;;;-0.69;63.85;99922.14;105405;1333;22323;-77
2021/12/09 10:15:50;;;;;;;23.20;14.80;;;;;;;-0.66;64.03;99897.14;105302;1334;22469;-78
2021/12/09 10:18:41;;;;;;;18.50;13.60;;;;;;;-0.67;64.16;99884.66;105272;1334;22449;-79
2021/12/09 10:21:11;;;;;;;20.20;13.00;;;;;;;-0.64;64.10;99880.95;105403;1333;22415;-78
2021/12/09 10:23:48;;;;;;;20.70;13.90;;;;;;;-0.59;64.34;99890.09;105443;1333;22327;-84
2021/12/09 10:26:22;;;;;;;20.70;14.10;;;;;;;-0.53;64.13;99897.36;105809;1326;22440;-83
2021/12/09 10:29:04;;;;;;;24.00;13.90;;;;;;;-0.48;64.37;99908.73;106389;1326;22418;-81
2021/12/09 10:31:38;;;;;;;22.00;14.30;;;;;;;-0.38;64.46;99915.40;106447;1326;22292;-81
2021/12/09 10:34:20;;;;;;;22.00;15.10;;;;;;;-0.35;64.02;99909.94;105498;1332;22636;-84
2021/12/09 10:36:55;;;;;;;17.00;11.70;;;;;;;-0.40;63.93;99910.84;105548;1333;22288;-81
2021/12/09 10:40:05;;;;;;;20.90;14.20;;;;;;;-0.51;63.84;99903.46;105339;1333;22399;-81
2021/12/09 10:42:37;;;;;;;19.30;12.20;;;;;;;-0.52;64.35;99902.92;104738;1339;22296;-85
2021/12/09 10:45:04;;;;;;;17.10;12.70;;;;;;;-0.57;64.51;99903.47;104691;1339;22353;-81
2021/12/09 10:50:26;;;;;;;18.80;12.70;;;;;;;-0.52;64.68;99917.61;104848;1339;22955;-81
2021/12/09 10:56:09;;;;;;;19.80;11.90;;;;;;;-0.56;64.99;99919.74;105328;1333;22427;-78
2021/12/09 10:58:40;;;;;;;19.00;12.10;;;;;;;-0.49;65.05;99929.46;105198;1333;22263;-82
2021/12/09 11:01:08;;;;;;;20.80;13.70;;;;;;;-0.46;64.75;99931.08;105377;1333;22349;-82
2021/12/09 11:03:50;;;;;;;19.40;13.30;;;;;;;-0.53;64.62;99928.48;105210;1333;22989;-80
2021/12/09 11:06:21;;;;;;;19.50;12.80;;;;;;;-0.60;65.02;99925.70;105204;1334;22789;-80
2021/12/09 11:08:55;;;;;;;17.70;12.40;;;;;;;-0.55;65.21;99925.13;105091;1334;22420;-81
2021/12/09 11:11:33;;;;;;;20.40;12.40;;;;;;;-0.46;65.41;99918.13;104871;1336;22301;-81
2021/12/09 11:14:03;;;;;;;20.70;12.80;;;;;;;-0.36;65.46;99905.09;104741;1337;22284;-81
2021/12/09 11:16:36;;;;;;;22.30;12.80;;;;;;;-0.28;65.22;99892.15;105059;1336;23125;-82
2021/12/09 11:19:12;;;;;;;16.20;11.60;;;;;;;-0.24;65.21;99884.45;104885;1336;22281;-81
2021/12/09 11:21:51;;;;;;;16.90;10.20;;;;;;;-0.23;65.34;99877.20;104819;1336;22306;-80
2021/12/09 11:24:20;;;;;;;16.80;11.00;;;;;;;-0.30;64.92;99871.67;105094;1336;22288;-81
2021/12/09 11:29:42;;;;;;;18.60;12.40;;;;;;;-0.39;65.08;99861.73;105061;1334;22303;-80
2021/12/09 11:32:32;;;;;;;17.20;11.40;;;;;;;-0.44;65.48;99856.60;105913;1326;22406;-81
2021/12/09 11:35:17;;;;;;;15.00;10.60;;;;;;;-0.37;65.72;99847.61;106266;1327;22410;-81